createdAt,value
2017-09-03T00:00:27.725Z,71.16
2017-09-03T00:01:27.703Z,71.26
2017-09-03T00:02:27.700Z,71.16
2017-09-03T00:03:28.122Z,71.26
2017-09-03T00:04:27.696Z,71.16
2017-09-03T00:05:27.663Z,71.22
2017-09-03T00:06:27.666Z,70.97
2017-09-03T00:07:27.650Z,70.97
2017-09-03T00:08:27.643Z,71.45
2017-09-03T00:09:27.984Z,71.36
2017-09-03T00:10:27.645Z,71.32
2017-09-03T00:11:27.608Z,71.16
2017-09-03T00:12:32.828Z,71.32
2017-09-03T00:13:27.624Z,71.13
2017-09-03T00:14:27.567Z,71.61
2017-09-03T00:15:27.899Z,71.61
2017-09-03T00:16:27.552Z,71.99
2017-09-03T00:17:27.534Z,71.61
2017-09-03T00:18:27.567Z,71.80
2017-09-03T00:19:27.525Z,71.61
2017-09-03T00:20:27.507Z,71.80
2017-09-03T00:21:27.559Z,71.51
2017-09-03T00:22:27.488Z,71.61
2017-09-03T00:23:27.504Z,71.89
2017-09-03T00:24:27.474Z,71.89
2017-09-03T00:25:27.453Z,71.80
2017-09-03T00:26:27.901Z,71.70
2017-09-03T00:27:27.433Z,71.61
2017-09-03T00:28:27.629Z,71.42
2017-09-03T00:29:27.406Z,71.80
2017-09-03T00:30:27.407Z,71.80
2017-09-03T00:31:27.394Z,71.61
2017-09-03T00:32:27.377Z,71.51
2017-09-03T00:33:27.670Z,71.51
2017-09-03T00:34:27.353Z,71.61
2017-09-03T00:35:27.348Z,71.42
2017-09-03T00:36:27.333Z,71.80
2017-09-03T00:37:27.331Z,71.61
2017-09-03T00:38:27.316Z,71.13
2017-09-03T00:39:27.332Z,71.13
2017-09-03T00:40:27.289Z,71.32
2017-09-03T00:41:27.277Z,71.13
2017-09-03T00:42:27.278Z,71.89
2017-09-03T00:43:27.620Z,71.51
2017-09-03T00:44:27.260Z,71.61
2017-09-03T00:45:27.234Z,71.42
2017-09-03T00:46:27.225Z,71.51
2017-09-03T00:47:27.216Z,71.80
2017-09-03T00:48:27.206Z,71.80
2017-09-03T00:49:27.581Z,71.89
2017-09-03T00:50:27.178Z,71.70
2017-09-03T00:51:27.168Z,71.70
2017-09-03T00:52:27.161Z,72.08
2017-09-03T00:53:27.151Z,72.08
2017-09-03T00:54:27.140Z,72.08
2017-09-03T00:55:27.335Z,71.99
2017-09-03T00:56:27.775Z,71.99
2017-09-03T00:57:27.106Z,72.08
2017-09-03T00:58:27.097Z,72.08
2017-09-03T00:59:27.438Z,72.18
2017-09-03T01:00:27.070Z,72.18
2017-09-03T01:01:27.128Z,72.37
2017-09-03T01:02:27.054Z,71.89
2017-09-03T01:03:27.049Z,71.80
2017-09-03T01:04:27.024Z,71.89
2017-09-03T01:05:27.577Z,72.08
2017-09-03T01:06:27.004Z,72.08
2017-09-03T01:07:27.162Z,71.51
2017-09-03T01:08:27.176Z,71.22
2017-09-03T01:09:27.127Z,71.38
2017-09-03T01:10:26.966Z,71.76
2017-09-03T01:11:26.981Z,71.76
2017-09-03T01:12:26.952Z,71.76
2017-09-03T01:13:26.927Z,71.95
2017-09-03T01:14:26.920Z,71.67
2017-09-03T01:15:27.068Z,72.24
2017-09-03T01:16:26.903Z,72.33
2017-09-03T01:17:26.895Z,72.43
2017-09-03T01:18:26.885Z,72.33
2017-09-03T01:19:26.938Z,72.87
2017-09-03T01:20:27.166Z,72.72
2017-09-03T01:21:26.843Z,72.87
2017-09-03T01:22:26.827Z,72.68
2017-09-03T01:23:26.818Z,72.62
2017-09-03T01:24:26.805Z,73.19
2017-09-03T01:25:26.813Z,73.29
2017-09-03T01:26:27.125Z,73.10
2017-09-03T01:27:26.775Z,72.91
2017-09-03T01:28:26.771Z,72.81
2017-09-03T01:29:26.746Z,72.62
2017-09-03T01:30:26.745Z,72.81
2017-09-03T01:31:26.731Z,72.72
2017-09-03T01:32:26.746Z,72.62
2017-09-03T01:33:26.707Z,72.81
2017-09-03T01:34:26.702Z,72.62
2017-09-03T01:35:26.719Z,73.00
2017-09-03T01:36:26.675Z,72.62
2017-09-03T01:37:26.662Z,72.72
2017-09-03T01:38:26.653Z,72.33
2017-09-03T01:39:26.639Z,71.95
2017-09-03T01:40:27.044Z,72.33
2017-09-03T01:41:26.622Z,72.14
2017-09-03T01:42:26.613Z,71.67
2017-09-03T01:43:26.602Z,71.76
2017-09-03T01:44:26.583Z,71.76
2017-09-03T01:45:26.568Z,71.72
2017-09-03T01:46:26.921Z,71.95
2017-09-03T01:47:26.548Z,72.43
2017-09-03T01:48:26.538Z,72.24
2017-09-03T01:49:26.529Z,72.24
2017-09-03T01:50:26.529Z,72.39
2017-09-03T01:51:26.507Z,72.43
2017-09-03T01:52:26.806Z,72.33
2017-09-03T01:53:26.485Z,72.43
2017-09-03T01:54:26.471Z,72.14
2017-09-03T01:55:26.466Z,71.95
2017-09-03T01:56:26.446Z,72.33
2017-09-03T01:57:26.439Z,72.30
2017-09-03T01:58:26.730Z,72.62
2017-09-03T01:59:26.419Z,72.43
2017-09-03T02:00:26.403Z,72.43
2017-09-03T02:01:26.405Z,72.43
2017-09-03T02:02:26.385Z,72.53
2017-09-03T02:03:26.372Z,72.24
2017-09-03T02:04:26.841Z,71.76
2017-09-03T02:05:26.352Z,71.76
2017-09-03T02:06:26.335Z,72.20
2017-09-03T02:07:26.325Z,72.24
2017-09-03T02:08:26.315Z,72.30
2017-09-03T02:09:26.311Z,72.58
2017-09-03T02:10:26.317Z,72.49
2017-09-03T02:11:26.282Z,72.68
2017-09-03T02:12:26.273Z,72.39
2017-09-03T02:13:26.668Z,72.43
2017-09-03T02:14:26.250Z,72.33
2017-09-03T02:15:26.234Z,72.43
2017-09-03T02:16:26.228Z,72.72
2017-09-03T02:17:26.212Z,72.53
2017-09-03T02:18:26.203Z,72.14
2017-09-03T02:19:26.239Z,72.62
2017-09-03T02:20:47.182Z,72.05
2017-09-03T02:21:26.166Z,72.24
2017-09-03T02:22:26.152Z,72.24
2017-09-03T02:23:26.143Z,72.24
2017-09-03T02:24:26.364Z,72.14
2017-09-03T02:25:26.121Z,72.14
2017-09-03T02:26:26.110Z,72.05
2017-09-03T02:27:26.095Z,71.67
2017-09-03T02:28:26.085Z,71.57
2017-09-03T02:29:26.076Z,72.14
2017-09-03T02:30:26.368Z,72.30
2017-09-03T02:31:26.053Z,72.11
2017-09-03T02:32:26.044Z,72.39
2017-09-03T02:33:26.030Z,72.01
2017-09-03T02:34:26.025Z,71.38
2017-09-03T02:35:26.019Z,72.11
2017-09-03T02:36:26.422Z,71.76
2017-09-03T02:37:25.985Z,71.67
2017-09-03T02:38:25.981Z,72.05
2017-09-03T02:39:25.964Z,72.11
2017-09-03T02:40:25.963Z,72.33
2017-09-03T02:41:25.940Z,72.14
2017-09-03T02:42:26.307Z,72.01
2017-09-03T02:43:25.916Z,71.63
2017-09-03T02:44:25.909Z,71.67
2017-09-03T02:45:25.902Z,71.95
2017-09-03T02:46:25.881Z,71.67
2017-09-03T02:47:25.873Z,71.82
2017-09-03T02:48:26.199Z,71.82
2017-09-03T02:49:25.856Z,71.76
2017-09-03T02:50:25.841Z,71.95
2017-09-03T02:51:25.828Z,72.11
2017-09-03T02:52:25.816Z,71.63
2017-09-03T02:53:25.807Z,71.63
2017-09-03T02:54:26.095Z,71.95
2017-09-03T02:55:25.784Z,71.67
2017-09-03T02:56:25.774Z,71.76
2017-09-03T02:57:25.759Z,72.05
2017-09-03T02:58:25.745Z,71.86
2017-09-03T02:59:25.736Z,71.67
2017-09-03T03:00:26.077Z,71.95
2017-09-03T03:01:25.716Z,71.57
2017-09-03T03:02:25.698Z,72.05
2017-09-03T03:03:25.691Z,71.82
2017-09-03T03:04:25.679Z,71.86
2017-09-03T03:05:25.671Z,71.63
2017-09-03T03:06:25.685Z,71.72
2017-09-03T03:07:25.646Z,72.01
2017-09-03T03:08:25.663Z,71.92
2017-09-03T03:09:25.625Z,71.63
2017-09-03T03:10:25.613Z,71.53
2017-09-03T03:11:25.595Z,71.57
2017-09-03T03:12:25.587Z,71.63
2017-09-03T03:13:26.006Z,71.76
2017-09-03T03:14:25.572Z,71.72
2017-09-03T03:15:25.553Z,71.67
2017-09-03T03:16:25.548Z,71.86
2017-09-03T03:17:25.545Z,71.72
2017-09-03T03:18:25.520Z,71.92
2017-09-03T03:19:25.541Z,71.63
2017-09-03T03:20:25.494Z,72.01
2017-09-03T03:21:25.480Z,71.82
2017-09-03T03:22:25.483Z,71.92
2017-09-03T03:23:25.887Z,72.01
2017-09-03T03:24:25.451Z,71.72
2017-09-03T03:25:25.436Z,71.63
2017-09-03T03:26:25.427Z,71.72
2017-09-03T03:27:25.417Z,71.92
2017-09-03T03:28:25.402Z,72.01
2017-09-03T03:29:25.416Z,71.44
2017-09-03T03:30:25.390Z,71.63
2017-09-03T03:31:25.370Z,72.01
2017-09-03T03:32:25.360Z,71.72
2017-09-03T03:33:25.353Z,71.92
2017-09-03T03:34:25.728Z,71.92
2017-09-03T03:35:25.322Z,71.72
2017-09-03T03:36:25.308Z,71.72
2017-09-03T03:37:25.297Z,71.82
2017-09-03T03:38:25.287Z,72.39
2017-09-03T03:39:25.277Z,72.11
2017-09-03T03:40:25.561Z,71.82
2017-09-03T03:41:25.254Z,71.53
2017-09-03T03:42:25.245Z,71.53
2017-09-03T03:43:25.229Z,71.72
2017-09-03T03:44:25.220Z,71.72
2017-09-03T03:45:25.211Z,71.72
2017-09-03T03:46:25.533Z,72.20
2017-09-03T03:47:25.182Z,71.82
2017-09-03T03:48:25.169Z,71.82
2017-09-03T03:49:25.156Z,71.44
2017-09-03T03:50:25.159Z,72.11
2017-09-03T03:51:25.145Z,72.30
2017-09-03T03:52:25.562Z,72.11
2017-09-03T03:53:25.120Z,72.11
2017-09-03T03:54:25.100Z,71.72
2017-09-03T03:55:25.093Z,71.92
2017-09-03T03:56:25.079Z,71.72
2017-09-03T03:57:25.075Z,71.72
2017-09-03T03:58:25.087Z,71.82
2017-09-03T03:59:25.046Z,71.63
2017-09-03T04:00:25.459Z,72.01
2017-09-03T04:01:25.021Z,72.20
2017-09-03T04:02:25.017Z,72.01
2017-09-03T04:03:24.994Z,72.30
2017-09-03T04:04:24.988Z,71.34
2017-09-03T04:05:24.976Z,71.31
2017-09-03T04:06:25.186Z,72.07
2017-09-03T04:07:24.960Z,72.26
2017-09-03T04:08:24.943Z,71.98
2017-09-03T04:09:24.940Z,72.45
2017-09-03T04:10:24.918Z,72.36
2017-09-03T04:11:24.904Z,72.17
2017-09-03T04:12:24.928Z,71.98
2017-09-03T04:13:24.878Z,72.26
2017-09-03T04:14:24.874Z,71.82
2017-09-03T04:15:25.209Z,71.82
2017-09-03T04:16:24.848Z,71.50
2017-09-03T04:17:24.839Z,71.59
2017-09-03T04:18:24.820Z,71.69
2017-09-03T04:19:24.807Z,71.88
2017-09-03T04:20:24.808Z,71.50
2017-09-03T04:21:24.809Z,71.50
2017-09-03T04:22:24.774Z,71.41
2017-09-03T04:23:24.756Z,71.78
2017-09-03T04:24:24.757Z,71.78
2017-09-03T04:25:24.768Z,71.59
2017-09-03T04:26:24.726Z,71.98
2017-09-03T04:27:24.714Z,71.78
2017-09-03T04:28:24.698Z,72.26
2017-09-03T04:29:24.694Z,71.69
2017-09-03T04:30:25.095Z,72.07
2017-09-03T04:31:24.667Z,72.17
2017-09-03T04:32:24.655Z,72.17
2017-09-03T04:33:24.646Z,71.98
2017-09-03T04:34:24.628Z,71.78
2017-09-03T04:35:24.623Z,71.78
2017-09-03T04:36:24.944Z,71.88
2017-09-03T04:37:24.593Z,71.88
2017-09-03T04:38:24.583Z,72.07
2017-09-03T04:39:24.573Z,71.88
2017-09-03T04:40:24.560Z,71.88
2017-09-03T04:41:24.547Z,72.26
2017-09-03T04:42:24.883Z,71.50
2017-09-03T04:43:24.547Z,72.07
2017-09-03T04:44:24.509Z,72.17
2017-09-03T04:45:24.507Z,71.88
2017-09-03T04:46:24.486Z,71.88
2017-09-03T04:47:24.473Z,72.26
2017-09-03T04:48:24.765Z,72.07
2017-09-03T04:49:24.458Z,71.98
2017-09-03T04:50:24.449Z,71.88
2017-09-03T04:51:24.431Z,72.07
2017-09-03T04:52:24.420Z,72.26
2017-09-03T04:53:24.402Z,71.98
2017-09-03T04:54:24.614Z,72.07
2017-09-03T04:55:24.382Z,72.26
2017-09-03T04:56:24.378Z,71.98
2017-09-03T04:57:24.367Z,71.88
2017-09-03T04:58:24.341Z,71.88
2017-09-03T04:59:24.332Z,72.07
2017-09-03T05:00:24.688Z,72.07
2017-09-03T05:01:24.311Z,72.17
2017-09-03T05:02:24.307Z,72.26
2017-09-03T05:03:24.293Z,71.88
2017-09-03T05:04:24.271Z,71.50
2017-09-03T05:05:24.261Z,71.78
2017-09-03T05:06:24.285Z,71.59
2017-09-03T05:07:24.237Z,71.41
2017-09-03T05:08:24.223Z,72.36
2017-09-03T05:09:24.239Z,72.45
2017-09-03T05:10:24.202Z,71.41
2017-09-03T05:11:24.193Z,72.07
2017-09-03T05:12:24.192Z,71.98
2017-09-03T05:13:24.165Z,72.07
2017-09-03T05:14:24.586Z,71.98
2017-09-03T05:15:24.143Z,72.07
2017-09-03T05:16:24.135Z,71.98
2017-09-03T05:17:24.115Z,72.07
2017-09-03T05:18:24.125Z,71.98
2017-09-03T05:19:24.091Z,72.07
2017-09-03T05:20:24.118Z,71.98
2017-09-03T05:21:24.069Z,72.07
2017-09-03T05:22:24.055Z,72.07
2017-09-03T05:23:24.049Z,72.17
2017-09-03T05:24:24.436Z,71.88
2017-09-03T05:25:24.036Z,72.07
2017-09-03T05:26:24.008Z,71.78
2017-09-03T05:27:24.010Z,72.07
2017-09-03T05:28:23.988Z,72.45
2017-09-03T05:29:23.976Z,72.36
2017-09-03T05:30:24.356Z,72.26
2017-09-03T05:31:23.952Z,71.98
2017-09-03T05:32:23.954Z,72.26
2017-09-03T05:33:23.927Z,72.36
2017-09-03T05:34:23.925Z,71.88
2017-09-03T05:35:23.905Z,71.88
2017-09-03T05:36:24.239Z,72.26
2017-09-03T05:37:23.880Z,71.98
2017-09-03T05:38:23.876Z,72.36
2017-09-03T05:39:23.858Z,72.26
2017-09-03T05:40:23.843Z,72.36
2017-09-03T05:41:23.837Z,72.26
2017-09-03T05:42:23.851Z,71.98
2017-09-03T05:43:23.805Z,72.26
2017-09-03T05:44:23.798Z,72.36
2017-09-03T05:45:23.779Z,72.55
2017-09-03T05:46:24.216Z,72.45
2017-09-03T05:47:23.764Z,72.36
2017-09-03T05:48:23.747Z,72.55
2017-09-03T05:49:23.735Z,72.36
2017-09-03T05:50:23.726Z,72.36
2017-09-03T05:51:23.712Z,72.36
2017-09-03T05:52:24.003Z,72.45
2017-09-03T05:53:23.688Z,72.93
2017-09-03T05:54:23.676Z,72.93
2017-09-03T05:55:23.659Z,72.83
2017-09-03T05:56:23.656Z,72.55
2017-09-03T05:57:23.639Z,72.36
2017-09-03T05:58:23.991Z,72.55
2017-09-03T05:59:23.616Z,72.83
2017-09-03T06:00:23.616Z,72.78
2017-09-03T06:01:23.593Z,72.64
2017-09-03T06:02:23.579Z,72.74
2017-09-03T06:03:23.566Z,72.74
2017-09-03T06:04:23.870Z,72.83
2017-09-03T06:05:23.550Z,72.64
2017-09-03T06:06:23.533Z,72.93
2017-09-03T06:07:23.528Z,73.03
2017-09-03T06:08:23.509Z,72.64
2017-09-03T06:09:23.500Z,73.12
2017-09-03T06:10:23.522Z,73.12
2017-09-03T06:11:23.491Z,73.41
2017-09-03T06:12:23.460Z,73.41
2017-09-03T06:13:23.454Z,73.22
2017-09-03T06:14:23.444Z,73.12
2017-09-03T06:15:23.429Z,72.93
2017-09-03T06:16:23.768Z,73.32
2017-09-03T06:17:23.398Z,73.69
2017-09-03T06:18:23.393Z,73.41
2017-09-03T06:19:23.380Z,73.32
2017-09-03T06:20:23.364Z,73.98
2017-09-03T06:21:23.362Z,73.69
2017-09-03T06:22:23.369Z,73.98
2017-09-03T06:23:23.333Z,73.79
2017-09-03T06:24:23.323Z,73.88
2017-09-03T06:25:23.311Z,73.98
2017-09-03T06:26:23.321Z,73.69
2017-09-03T06:27:23.296Z,74.17
2017-09-03T06:28:23.272Z,73.88
2017-09-03T06:29:23.267Z,73.88
2017-09-03T06:30:23.247Z,74.17
2017-09-03T06:31:23.271Z,74.27
2017-09-03T06:32:23.237Z,74.17
2017-09-03T06:33:23.214Z,73.73
2017-09-03T06:34:23.217Z,73.83
2017-09-03T06:35:23.198Z,73.92
2017-09-03T06:36:23.221Z,73.83
2017-09-03T06:37:23.171Z,74.02
2017-09-03T06:38:23.156Z,73.63
2017-09-03T06:39:23.143Z,73.92
2017-09-03T06:40:23.138Z,73.63
2017-09-03T06:41:23.330Z,73.92
2017-09-03T06:42:23.117Z,73.92
2017-09-03T06:43:23.094Z,73.63
2017-09-03T06:44:23.091Z,73.83
2017-09-03T06:45:23.076Z,74.11
2017-09-03T06:46:23.062Z,73.83
2017-09-03T06:47:23.394Z,74.11
2017-09-03T06:48:23.049Z,74.21
2017-09-03T06:49:23.037Z,73.92
2017-09-03T06:50:23.017Z,73.73
2017-09-03T06:51:23.005Z,74.11
2017-09-03T06:52:22.994Z,73.63
2017-09-03T06:53:23.280Z,73.63
2017-09-03T06:54:22.976Z,74.11
2017-09-03T06:55:22.961Z,74.59
2017-09-03T06:56:22.955Z,73.73
2017-09-03T06:57:22.935Z,74.02
2017-09-03T06:58:22.928Z,74.02
2017-09-03T06:59:23.221Z,73.63
2017-09-03T07:00:22.903Z,74.02
2017-09-03T07:01:22.895Z,74.02
2017-09-03T07:02:22.877Z,74.02
2017-09-03T07:03:22.876Z,74.59
2017-09-03T07:04:22.855Z,74.59
2017-09-03T07:05:23.282Z,74.02
2017-09-03T07:06:22.834Z,73.92
2017-09-03T07:07:22.822Z,73.92
2017-09-03T07:08:22.812Z,74.02
2017-09-03T07:09:22.799Z,74.02
2017-09-03T07:10:22.795Z,73.92
2017-09-03T07:11:23.221Z,73.58
2017-09-03T07:12:22.761Z,74.40
2017-09-03T07:13:22.753Z,74.40
2017-09-03T07:14:22.741Z,74.34
2017-09-03T07:15:22.729Z,74.24
2017-09-03T07:16:22.724Z,73.92
2017-09-03T07:17:23.100Z,73.96
2017-09-03T07:18:22.697Z,74.21
2017-09-03T07:19:22.690Z,74.34
2017-09-03T07:20:22.682Z,74.30
2017-09-03T07:21:22.663Z,74.15
2017-09-03T07:22:22.653Z,74.15
2017-09-03T07:23:22.993Z,74.21
2017-09-03T07:24:22.630Z,74.34
2017-09-03T07:25:22.626Z,74.24
2017-09-03T07:26:22.612Z,74.34
2017-09-03T07:27:22.610Z,74.34
2017-09-03T07:28:22.582Z,74.44
2017-09-03T07:29:22.791Z,74.44
2017-09-03T07:30:22.560Z,74.15
2017-09-03T07:31:22.562Z,74.24
2017-09-03T07:32:22.549Z,74.34
2017-09-03T07:33:22.534Z,74.73
2017-09-03T07:34:22.524Z,75.20
2017-09-03T07:35:22.531Z,75.10
2017-09-03T07:36:22.499Z,75.16
2017-09-03T07:37:22.480Z,75.07
2017-09-03T07:38:22.479Z,75.35
2017-09-03T07:39:22.472Z,75.26
2017-09-03T07:40:22.459Z,75.16
2017-09-03T07:41:22.474Z,75.01
2017-09-03T07:42:22.429Z,75.35
2017-09-03T07:43:22.419Z,75.30
2017-09-03T07:44:22.435Z,75.20
2017-09-03T07:45:22.391Z,75.20
2017-09-03T07:46:22.393Z,75.20
2017-09-03T07:47:22.373Z,75.30
2017-09-03T07:48:22.358Z,75.96
2017-09-03T07:49:22.663Z,75.39
2017-09-03T07:50:22.336Z,75.20
2017-09-03T07:51:22.327Z,75.20
2017-09-03T07:52:22.316Z,75.20
2017-09-03T07:53:22.304Z,75.20
2017-09-03T07:54:22.299Z,75.10
2017-09-03T07:55:22.591Z,75.20
2017-09-03T07:56:22.275Z,75.10
2017-09-03T07:57:22.261Z,75.39
2017-09-03T07:58:22.250Z,76.35
2017-09-03T07:59:22.236Z,76.45
2017-09-03T08:00:22.239Z,77.01
2017-09-03T08:01:22.249Z,77.11
2017-09-03T08:02:22.213Z,77.11
2017-09-03T08:03:22.192Z,77.11
2017-09-03T08:04:22.216Z,77.59
2017-09-03T08:05:22.170Z,77.30
2017-09-03T08:06:22.177Z,76.54
2017-09-03T08:07:22.151Z,76.73
2017-09-03T08:08:22.138Z,77.40
2017-09-03T08:09:22.581Z,77.11
2017-09-03T08:10:22.120Z,77.50
2017-09-03T08:11:22.105Z,77.50
2017-09-03T08:12:22.104Z,76.82
2017-09-03T08:13:22.088Z,77.30
2017-09-03T08:14:22.071Z,76.54
2017-09-03T08:15:22.501Z,76.73
2017-09-03T08:16:22.062Z,76.92
2017-09-03T08:17:22.041Z,77.01
2017-09-03T08:18:22.031Z,76.16
2017-09-03T08:19:22.016Z,76.39
2017-09-03T08:20:22.012Z,76.86
2017-09-03T08:21:22.021Z,78.87
2017-09-03T08:22:21.992Z,78.01
2017-09-03T08:23:21.976Z,77.92
2017-09-03T08:24:21.962Z,80.40
2017-09-03T08:25:22.243Z,80.21
2017-09-03T08:26:21.944Z,79.64
2017-09-03T08:27:22.122Z,80.21
2017-09-03T08:28:21.924Z,79.44
2017-09-03T08:29:21.910Z,79.35
2017-09-03T08:30:21.903Z,79.06
2017-09-03T08:31:22.282Z,79.06
2017-09-03T08:32:21.881Z,78.87
2017-09-03T08:33:21.861Z,78.87
2017-09-03T08:34:21.878Z,79.25
2017-09-03T08:35:21.840Z,79.25
2017-09-03T08:36:21.844Z,79.35
2017-09-03T08:37:21.849Z,80.21
2017-09-03T08:38:21.816Z,80.21
2017-09-03T08:39:21.805Z,80.02
2017-09-03T08:40:21.821Z,80.30
2017-09-03T08:41:21.783Z,79.25
2017-09-03T08:42:21.772Z,79.25
2017-09-03T08:43:21.764Z,79.25
2017-09-03T08:44:21.748Z,80.21
2017-09-03T08:45:22.168Z,80.21
2017-09-03T08:46:21.739Z,79.64
2017-09-03T08:47:21.715Z,79.25
2017-09-03T08:48:21.711Z,79.44
2017-09-03T08:49:21.698Z,79.64
2017-09-03T08:50:21.686Z,81.30
2017-09-03T08:51:22.000Z,81.11
2017-09-03T08:52:21.668Z,80.44
2017-09-03T08:53:21.656Z,80.63
2017-09-03T08:54:21.645Z,81.21
2017-09-03T08:55:21.637Z,80.35
2017-09-03T08:56:21.629Z,80.25
2017-09-03T08:57:22.040Z,79.49
2017-09-03T08:58:21.605Z,80.25
2017-09-03T08:59:21.594Z,80.44
2017-09-03T09:00:21.584Z,79.68
2017-09-03T09:01:21.583Z,80.16
2017-09-03T09:02:21.563Z,79.87
2017-09-03T09:03:21.952Z,79.39
2017-09-03T09:04:21.553Z,79.49
2017-09-03T09:05:21.537Z,79.58
2017-09-03T09:06:21.518Z,79.00
2017-09-03T09:07:21.524Z,78.63
2017-09-03T09:08:21.505Z,78.91
2017-09-03T09:09:21.901Z,79.00
2017-09-03T09:10:21.485Z,79.33
2017-09-03T09:11:21.474Z,79.05
2017-09-03T09:12:21.461Z,78.63
2017-09-03T09:13:21.448Z,78.66
2017-09-03T09:14:21.449Z,79.14
2017-09-03T09:15:21.747Z,78.19
2017-09-03T09:16:21.429Z,77.99
2017-09-03T09:17:21.414Z,78.28
2017-09-03T09:18:21.411Z,78.95
2017-09-03T09:19:21.388Z,77.04
2017-09-03T09:20:21.382Z,76.56
2017-09-03T09:21:21.719Z,76.37
2017-09-03T09:22:21.362Z,76.75
2017-09-03T09:23:21.351Z,75.98
2017-09-03T09:24:21.342Z,75.93
2017-09-03T09:25:21.337Z,76.37
2017-09-03T09:26:21.331Z,76.69
2017-09-03T09:27:21.539Z,76.89
2017-09-03T09:28:21.303Z,76.50
2017-09-03T09:29:21.291Z,76.40
2017-09-03T09:30:21.284Z,75.45
2017-09-03T09:31:21.272Z,75.45
2017-09-03T09:32:21.271Z,75.93
2017-09-03T09:33:21.605Z,74.97
2017-09-03T09:34:21.330Z,75.45
2017-09-03T09:35:21.235Z,75.35
2017-09-03T09:36:21.223Z,75.45
2017-09-03T09:37:21.222Z,75.16
2017-09-03T09:38:21.215Z,75.07
2017-09-03T09:39:21.564Z,75.54
2017-09-03T09:40:21.190Z,75.45
2017-09-03T09:41:21.185Z,75.07
2017-09-03T09:42:21.170Z,75.16
2017-09-03T09:43:21.158Z,75.16
2017-09-03T09:44:21.154Z,74.97
2017-09-03T09:45:21.472Z,74.68
2017-09-03T09:46:21.137Z,74.82
2017-09-03T09:47:21.128Z,75.01
2017-09-03T09:48:21.116Z,74.33
2017-09-03T09:49:21.118Z,74.15
2017-09-03T09:50:21.098Z,74.33
2017-09-03T09:51:21.528Z,74.52
2017-09-03T09:52:21.072Z,74.52
2017-09-03T09:53:21.066Z,74.24
2017-09-03T09:54:21.059Z,74.15
2017-09-03T09:55:21.057Z,74.15
2017-09-03T09:56:21.038Z,74.24
2017-09-03T09:57:21.378Z,74.52
2017-09-03T09:58:21.019Z,74.52
2017-09-03T09:59:21.009Z,74.43
2017-09-03T10:00:21.001Z,74.52
2017-09-03T10:01:20.991Z,74.05
2017-09-03T10:02:20.989Z,73.76
2017-09-03T10:03:21.699Z,74.33
2017-09-03T10:04:20.972Z,74.24
2017-09-03T10:05:21.045Z,74.15
2017-09-03T10:06:20.954Z,73.57
2017-09-03T10:07:20.937Z,73.86
2017-09-03T10:08:20.932Z,73.66
2017-09-03T10:09:21.381Z,73.76
2017-09-03T10:10:21.004Z,73.76
2017-09-03T10:11:20.906Z,73.90
2017-09-03T10:12:20.991Z,73.86
2017-09-03T10:13:20.886Z,73.38
2017-09-03T10:14:20.891Z,73.38
2017-09-03T10:15:20.896Z,73.41
2017-09-03T10:16:21.542Z,73.61
2017-09-03T10:17:20.863Z,73.61
2017-09-03T10:18:20.834Z,70.54
2017-09-03T10:19:20.834Z,71.21
2017-09-03T10:20:21.100Z,70.83
2017-09-03T10:21:20.811Z,68.43
2017-09-03T10:22:20.801Z,69.58
2017-09-03T10:23:20.798Z,70.54
2017-09-03T10:24:20.792Z,70.44
2017-09-03T10:25:21.122Z,70.64
2017-09-03T10:26:20.771Z,71.11
2017-09-03T10:27:20.766Z,70.15
2017-09-03T10:28:20.754Z,68.43
2017-09-03T10:29:20.751Z,69.58
2017-09-03T10:30:20.740Z,69.29
2017-09-03T10:31:21.155Z,69.96
2017-09-03T10:32:20.717Z,70.25
2017-09-03T10:33:20.716Z,70.35
2017-09-03T10:34:20.698Z,70.35
2017-09-03T10:35:20.719Z,70.54
2017-09-03T10:36:20.682Z,70.54
2017-09-03T10:37:21.085Z,70.15
2017-09-03T10:38:20.664Z,70.73
2017-09-03T10:39:20.666Z,70.96
2017-09-03T10:40:20.647Z,70.19
2017-09-03T10:41:20.667Z,70.29
2017-09-03T10:42:20.629Z,70.86
2017-09-03T10:43:20.930Z,70.57
2017-09-03T10:44:20.611Z,70.29
2017-09-03T10:45:20.614Z,70.29
2017-09-03T10:46:20.611Z,70.96
2017-09-03T10:47:20.593Z,70.86
2017-09-03T10:48:20.579Z,70.67
2017-09-03T10:49:20.605Z,70.96
2017-09-03T10:50:20.562Z,71.05
2017-09-03T10:51:20.558Z,70.86
2017-09-03T10:52:20.560Z,70.86
2017-09-03T10:53:20.539Z,70.76
2017-09-03T10:54:20.537Z,70.67
2017-09-03T10:55:20.731Z,70.29
2017-09-03T10:56:20.519Z,70.19
2017-09-03T10:57:20.502Z,69.90
2017-09-03T10:58:20.492Z,69.90
2017-09-03T10:59:20.485Z,70.48
2017-09-03T11:00:20.483Z,69.90
2017-09-03T11:01:20.827Z,69.90
2017-09-03T11:02:20.462Z,70.09
2017-09-03T11:03:20.633Z,70.00
2017-09-03T11:04:20.518Z,70.29
2017-09-03T11:05:20.453Z,69.52
2017-09-03T11:06:20.426Z,69.52
2017-09-03T11:07:20.799Z,70.00
2017-09-03T11:08:20.412Z,69.93
2017-09-03T11:09:20.476Z,69.74
2017-09-03T11:10:20.395Z,69.52
2017-09-03T11:11:20.404Z,66.74
2017-09-03T11:12:20.376Z,66.93
2017-09-03T11:13:20.399Z,67.35
2017-09-03T11:14:20.419Z,68.12
2017-09-03T11:15:20.352Z,65.91
2017-09-03T11:16:20.354Z,65.81
2017-09-03T11:17:20.334Z,66.19
2017-09-03T11:18:20.628Z,66.49
2017-09-03T11:19:20.319Z,65.33
2017-09-03T11:20:20.321Z,64.09
2017-09-03T11:21:20.556Z,63.99
2017-09-03T11:22:20.295Z,64.56
2017-09-03T11:23:20.291Z,64.95
2017-09-03T11:24:20.582Z,63.70
2017-09-03T11:25:20.274Z,62.26
2017-09-03T11:26:20.268Z,63.06
2017-09-03T11:27:20.271Z,63.73
2017-09-03T11:28:20.248Z,63.73
2017-09-03T11:29:20.248Z,62.29
2017-09-03T11:30:20.280Z,61.81
2017-09-03T11:31:20.227Z,61.81
2017-09-03T11:32:20.224Z,61.24
2017-09-03T11:33:20.211Z,59.51
2017-09-03T11:34:20.576Z,60.47
2017-09-03T11:35:20.203Z,59.41
2017-09-03T11:36:20.190Z,60.28
2017-09-03T11:37:20.179Z,60.08
2017-09-03T11:38:20.173Z,59.61
2017-09-03T11:39:20.164Z,60.28
2017-09-03T11:40:20.459Z,60.75
2017-09-03T11:41:20.150Z,61.81
2017-09-03T11:42:20.139Z,61.72
2017-09-03T11:43:20.132Z,61.81
2017-09-03T11:44:20.135Z,60.47
2017-09-03T11:45:20.115Z,60.47
2017-09-03T11:46:20.327Z,59.77
2017-09-03T11:47:20.105Z,60.15
2017-09-03T11:48:20.105Z,61.02
2017-09-03T11:49:20.082Z,61.81
2017-09-03T11:50:20.075Z,61.59
2017-09-03T11:51:20.077Z,62.19
2017-09-03T11:52:20.400Z,62.68
2017-09-03T11:53:20.063Z,62.68
2017-09-03T11:54:20.052Z,60.57
2017-09-03T11:55:20.039Z,59.99
2017-09-03T11:56:20.031Z,61.24
2017-09-03T11:57:20.017Z,61.62
2017-09-03T11:58:20.326Z,62.01
2017-09-03T11:59:20.006Z,61.72
2017-09-03T12:00:20.003Z,61.52
2017-09-03T12:01:19.988Z,62.19
2017-09-03T12:02:19.991Z,62.29
2017-09-03T12:03:19.974Z,62.68
2017-09-03T12:04:20.276Z,61.84
2017-09-03T12:05:19.956Z,60.50
2017-09-03T12:06:19.951Z,61.27
2017-09-03T12:07:19.951Z,62.13
2017-09-03T12:08:19.938Z,61.84
2017-09-03T12:09:19.934Z,61.94
2017-09-03T12:10:20.308Z,61.94
2017-09-03T12:11:19.912Z,61.65
2017-09-03T12:12:19.914Z,61.65
2017-09-03T12:13:19.902Z,61.65
2017-09-03T12:14:19.894Z,62.13
2017-09-03T12:15:19.891Z,62.13
2017-09-03T12:16:20.181Z,61.68
2017-09-03T12:17:19.872Z,61.87
2017-09-03T12:18:19.865Z,59.47
2017-09-03T12:19:19.857Z,58.29
2017-09-03T12:20:19.848Z,57.23
2017-09-03T12:21:19.842Z,58.29
2017-09-03T12:22:19.862Z,57.71
2017-09-03T12:23:19.890Z,58.20
2017-09-03T12:24:19.824Z,58.58
2017-09-03T12:25:19.847Z,58.00
2017-09-03T12:26:19.805Z,57.71
2017-09-03T12:27:19.805Z,59.06
2017-09-03T12:28:19.794Z,58.96
2017-09-03T12:29:19.798Z,59.54
2017-09-03T12:30:20.133Z,59.38
2017-09-03T12:31:19.772Z,59.76
2017-09-03T12:32:19.760Z,59.47
2017-09-03T12:33:19.756Z,59.95
2017-09-03T12:34:19.748Z,60.24
2017-09-03T12:35:19.742Z,60.14
2017-09-03T12:36:20.178Z,60.53
2017-09-03T12:37:19.731Z,60.82
2017-09-03T12:38:19.716Z,61.01
2017-09-03T12:39:19.712Z,60.53
2017-09-03T12:40:19.711Z,61.20
2017-09-03T12:41:19.700Z,61.30
2017-09-03T12:42:19.732Z,61.01
2017-09-03T12:43:19.703Z,61.30
2017-09-03T12:44:19.681Z,61.49
2017-09-03T12:45:19.669Z,61.68
2017-09-03T12:46:19.676Z,61.58
2017-09-03T12:47:19.953Z,61.30
2017-09-03T12:48:19.648Z,57.65
2017-09-03T12:49:19.638Z,57.75
2017-09-03T12:50:19.656Z,55.91
2017-09-03T12:51:19.627Z,55.53
2017-09-03T12:52:19.639Z,56.30